»·PEaware :: N47332B L88-L52

N47332B :: L88-L52

FLIGHT INFORMATION

Flight Status: Arrived
Operator: Privately registered:
United States
More flights under this callsign
Pilot: Neil S. (18905)
Aircraft: CESSNA 172 SKYHAWK
(C172)
More flights by this aircraft type
Origin: L88 New Cuyama
United States
Destination: L52 Oceano Co
United States
More flights between these airports :: More routes between these airports
Route: DIRECT
File this flight plan on PilotEdge
Remarks:
Altitude:
(Current/Filed)
5,000ft
Speed:
(Current/Filed)
115kts
Departed: 16-Apr-18 02:51 PM
Arrived: 16-Apr-18 03:30 PM
Distance/Time
Traveled:
47nm/0:39
Distance/Time
To Go:
Arrived

Flight Plot

Page will automatically refresh every two minutes.


Map Options




Map Legend


Flown Route
Filed Route
Departure Airport
Arrival Airport
Navaid (VOR, NDB)
Fix

Horizontal Profiles

Position Reports

Time Latitude Longitude Heading Altitude Ground
Speed
16-Apr-18 14:37 34.942854 -119.690286 204 2206ft 0kts
16-Apr-18 14:38 34.942854 -119.690286 204 2206ft 0kts
16-Apr-18 14:39 34.942854 -119.690286 204 2206ft 0kts
16-Apr-18 14:40 34.942854 -119.690286 204 2206ft 0kts
16-Apr-18 14:41 34.942854 -119.690286 204 2206ft 0kts
16-Apr-18 14:42 34.942857 -119.690886 278 2206ft 5kts
16-Apr-18 14:43 34.942525 -119.690851 171 2206ft 0kts
16-Apr-18 14:44 34.942522 -119.690852 185 2206ft 0kts
16-Apr-18 14:45 34.942523 -119.690852 185 2206ft 0kts
16-Apr-18 14:46 34.942523 -119.690852 185 2206ft 0kts
16-Apr-18 14:47 34.940929 -119.687831 116 2206ft 25kts
16-Apr-18 14:48 34.937754 -119.679946 98 2206ft 7kts
16-Apr-18 14:49 34.937713 -119.680146 297 2206ft 0kts
16-Apr-18 14:50 34.943035 -119.693898 291 2553ft 67kts
16-Apr-18 14:51 34.949627 -119.713807 289 3382ft 60kts
16-Apr-18 14:52 34.957149 -119.732835 290 4080ft 63kts
16-Apr-18 14:53 34.964040 -119.752378 296 4667ft 73kts
16-Apr-18 14:54 34.976015 -119.777220 296 5011ft 78kts
16-Apr-18 14:55 34.986540 -119.803114 294 5247ft 78kts
16-Apr-18 14:56 34.998122 -119.826776 296 5327ft 86kts
16-Apr-18 14:57 35.011730 -119.855274 297 4927ft 106kts
16-Apr-18 14:58 35.025644 -119.885075 298 4489ft 91kts
16-Apr-18 14:59 35.036953 -119.909083 296 4489ft 76kts
16-Apr-18 15:00 35.049497 -119.935550 297 4497ft 99kts
16-Apr-18 15:01 35.062922 -119.964257 297 4494ft 95kts
16-Apr-18 15:02 35.076062 -119.992161 297 4497ft 95kts
16-Apr-18 15:03 35.084615 -120.021798 267 4500ft 95kts
16-Apr-18 15:04 35.082478 -120.054178 267 4502ft 96kts
16-Apr-18 15:05 35.086401 -120.085897 276 4505ft 95kts
16-Apr-18 15:06 35.088058 -120.118061 273 4507ft 95kts
16-Apr-18 15:07 35.089146 -120.150255 273 4510ft 94kts
16-Apr-18 15:08 35.090150 -120.182388 273 4492ft 96kts
16-Apr-18 15:09 35.091282 -120.218846 274 4072ft 112kts
16-Apr-18 15:10 35.092317 -120.253140 274 3995ft 91kts
16-Apr-18 15:11 35.093221 -120.283311 274 3997ft 87kts
16-Apr-18 15:12 35.094106 -120.312911 274 3996ft 87kts
16-Apr-18 15:13 35.094984 -120.342534 274 3996ft 88kts
16-Apr-18 15:14 35.095929 -120.374273 274 3736ft 100kts
16-Apr-18 15:15 35.091790 -120.408055 253 3225ft 105kts
16-Apr-18 15:16 35.080393 -120.439339 242 2978ft 92kts
16-Apr-18 15:17 35.058173 -120.458163 218 2834ft 99kts
16-Apr-18 15:18 35.037835 -120.480305 230 2680ft 98kts
16-Apr-18 15:19 35.024244 -120.508168 249 2461ft 99kts
16-Apr-18 15:20 35.015984 -120.539444 262 2211ft 97kts
16-Apr-18 15:21 35.011872 -120.572547 268 1777ft 96kts
16-Apr-18 15:22 35.010409 -120.604532 285 1289ft 92kts
16-Apr-18 15:23 35.027219 -120.625917 332 1028ft 84kts
16-Apr-18 15:24 35.050083 -120.630582 346 1022ft 82kts
16-Apr-18 15:25 35.071317 -120.636309 337 1070ft 82kts
16-Apr-18 15:26 35.093620 -120.636191 42 992ft 103kts
16-Apr-18 15:27 35.087068 -120.605717 45 567ft 87kts
16-Apr-18 15:28 35.097470 -120.614861 299 152ft 44kts
16-Apr-18 15:29 35.101721 -120.622224 24 17ft 6kts
16-Apr-18 15:30 35.102215 -120.622129 303 17ft 1kts
16-Apr-18 15:31 35.102183 -120.622330 209 17ft 0kts
16-Apr-18 15:32 35.102183 -120.622330 209 17ft 0kts
16-Apr-18 15:33 35.102183 -120.622330 209 17ft 0kts
16-Apr-18 15:34 35.102183 -120.622330 209 17ft 0kts
16-Apr-18 15:35 35.102183 -120.622330 209 17ft 0kts
16-Apr-18 15:36 35.102183 -120.622330 209 17ft 0kts
16-Apr-18 15:37 35.102183 -120.622330 209 17ft 0kts
16-Apr-18 15:38 35.102183 -120.622330 209 17ft 0kts
16-Apr-18 15:39 35.102183 -120.622330 209 17ft 0kts
16-Apr-18 15:40 35.102183 -120.622330 209 17ft 0kts
16-Apr-18 15:41 35.102183 -120.622330 209 17ft 0kts
16-Apr-18 15:42 35.102183 -120.622330 209 17ft 0kts
16-Apr-18 15:43 35.102183 -120.622330 209 17ft 0kts

Navigation Log

Ident Type
Flight plan parsing failed, navigation log unavailable